Terminal Aerodrome Forecast
Issued by NWS Indianapolis, IN

Home | Current Version | Previous Version | Text Only | Print | Product List | Glossary On
Versions: 1 2 3 4 5 6 7 8 9 10 11 12 13 14 15 16 17 18 19 20 21 22 23 24 25 26
728
FTUS43 KIND 102320
TAFIND
TAF
KIND 102320Z 1100/1206 26005KT P6SM SCT200
     FM111200 00000KT P6SM BKN110
     FM111600 19006KT P6SM BKN150
     FM120200 26005KT P6SM BKN070
     FM120400 28007KT P6SM BKN030=

USA.gov is the U.S. government's official web portal to all federal, state and local government web resources and services.